createdAt,value
2019-02-19T00:01:41.195Z,0.56
2019-02-19T00:04:09.192Z,0.60
2019-02-19T00:06:37.306Z,0.54
2019-02-19T00:09:06.079Z,0.50
2019-02-19T00:11:34.054Z,0.58
2019-02-19T00:14:02.188Z,0.53
2019-02-19T00:16:30.383Z,0.54
2019-02-19T00:18:58.633Z,0.48
2019-02-19T00:21:26.677Z,0.41
2019-02-19T00:23:54.755Z,0.39
2019-02-19T00:26:22.707Z,0.36
2019-02-19T00:28:50.516Z,0.34
2019-02-19T00:31:18.516Z,0.36
2019-02-19T00:33:46.495Z,0.31
2019-02-19T00:36:14.421Z,0.25
2019-02-19T00:38:42.327Z,0.23
2019-02-19T00:41:10.458Z,0.19
2019-02-19T00:43:38.479Z,0.16
2019-02-19T00:46:06.480Z,0.14
2019-02-19T00:48:34.461Z,0.10
2019-02-19T00:51:02.596Z,0.09
2019-02-19T00:53:30.600Z,-0.01
2019-02-19T00:55:59.631Z,0.02
2019-02-19T00:58:27.782Z,-0.03
2019-02-19T01:00:56.013Z,-0.06
2019-02-19T01:03:24.299Z,-0.08
2019-02-19T01:05:52.536Z,-0.07
2019-02-19T01:08:20.355Z,-0.09
2019-02-19T01:10:48.542Z,-0.09
2019-02-19T01:13:16.838Z,-0.14
2019-02-19T01:15:44.771Z,-0.14
2019-02-19T01:18:12.728Z,-0.18
2019-02-19T01:20:40.702Z,-0.27
2019-02-19T01:23:08.798Z,-0.35
2019-02-19T01:25:36.630Z,-0.33
2019-02-19T01:28:04.582Z,-0.35
2019-02-19T01:30:32.765Z,-0.34
2019-02-19T01:33:01.870Z,-0.40
2019-02-19T01:35:29.731Z,-0.36
2019-02-19T01:37:57.605Z,-0.40
2019-02-19T01:40:25.681Z,-0.40
2019-02-19T01:42:54.564Z,-0.45
2019-02-19T01:45:22.652Z,-0.48
2019-02-19T01:47:50.704Z,-0.49
2019-02-19T01:50:20.015Z,-0.62
2019-02-19T01:52:48.111Z,-0.60
2019-02-19T01:55:16.119Z,-0.57
2019-02-19T01:57:44.087Z,-0.61
2019-02-19T02:00:12.113Z,-0.62
2019-02-19T02:02:40.225Z,-0.63
2019-02-19T02:05:11.138Z,-0.70
2019-02-19T02:07:39.086Z,-0.73
2019-02-19T02:10:07.245Z,-0.75
2019-02-19T02:12:35.415Z,-0.76
2019-02-19T02:15:03.378Z,-0.74
2019-02-19T02:17:31.504Z,-0.77
2019-02-19T02:19:59.600Z,-0.77
2019-02-19T02:22:27.730Z,-0.77
2019-02-19T02:24:55.799Z,-0.83
2019-02-19T02:27:24.126Z,-0.85
2019-02-19T02:29:52.469Z,-0.93
2019-02-19T02:32:20.478Z,-0.97
2019-02-19T02:34:48.386Z,-1.01
2019-02-19T02:37:17.257Z,-0.99
2019-02-19T02:39:45.148Z,-0.96
2019-02-19T02:42:13.091Z,-1.08
2019-02-19T02:44:42.037Z,-1.07
2019-02-19T02:47:10.205Z,-1.05
2019-02-19T02:49:38.845Z,-1.10
2019-02-19T02:52:06.766Z,-1.13
2019-02-19T02:54:34.733Z,-1.10
2019-02-19T02:57:02.887Z,-1.10
2019-02-19T02:59:31.049Z,-1.12
2019-02-19T03:01:59.972Z,-1.15
2019-02-19T03:04:28.041Z,-1.17
2019-02-19T03:07:10.609Z,-1.27
2019-02-19T03:09:38.805Z,-1.27
2019-02-19T03:12:06.864Z,-1.24
2019-02-19T03:14:34.795Z,-1.34
2019-02-19T03:17:02.722Z,-1.35
2019-02-19T03:19:30.776Z,-1.35
2019-02-19T03:21:58.904Z,-1.37
2019-02-19T03:24:26.986Z,-1.34
2019-02-19T03:26:55.045Z,-1.39
2019-02-19T03:29:22.969Z,-1.41
2019-02-19T03:31:50.928Z,-1.47
2019-02-19T03:34:19.905Z,-1.52
2019-02-19T03:36:49.123Z,-1.51
2019-02-19T03:39:16.963Z,-1.50
2019-02-19T03:41:45.104Z,-1.46
2019-02-19T03:44:12.998Z,-1.53
2019-02-19T03:46:40.998Z,-1.50
2019-02-19T03:49:08.874Z,-1.50
2019-02-19T03:51:36.630Z,-1.53
2019-02-19T03:54:04.632Z,-1.55
2019-02-19T03:56:32.759Z,-1.68
2019-02-19T03:59:00.705Z,-1.73
2019-02-19T04:01:29.025Z,-1.74
2019-02-19T04:03:57.154Z,-1.75
2019-02-19T04:06:25.073Z,-1.77
2019-02-19T04:08:53.054Z,-1.76
2019-02-19T04:11:21.132Z,-1.74
2019-02-19T04:13:49.205Z,-1.74
2019-02-19T04:16:21.360Z,-1.77
2019-02-19T04:18:46.980Z,-1.75
2019-02-19T04:21:15.114Z,-1.75
2019-02-19T04:23:42.961Z,-1.76
2019-02-19T04:26:11.178Z,-1.78
2019-02-19T04:28:39.115Z,-1.79
2019-02-19T04:31:07.273Z,-1.80
2019-02-19T04:33:35.980Z,-1.82
2019-02-19T04:36:04.099Z,-1.77
2019-02-19T04:38:32.076Z,-1.78
2019-02-19T04:41:00.351Z,-1.75
2019-02-19T04:43:28.307Z,-1.76
2019-02-19T04:45:56.464Z,-1.77
2019-02-19T04:48:24.859Z,-1.68
2019-02-19T04:50:52.627Z,-1.68
2019-02-19T04:53:20.599Z,-1.66
2019-02-19T04:55:48.515Z,-1.67
2019-02-19T04:58:16.499Z,-1.77
2019-02-19T05:00:45.418Z,-1.75
2019-02-19T05:03:13.945Z,-1.78
2019-02-19T05:05:41.860Z,-1.78
2019-02-19T05:08:09.730Z,-1.76
2019-02-19T05:10:37.557Z,-1.77
2019-02-19T05:13:05.570Z,-1.77
2019-02-19T05:15:33.476Z,-1.75
2019-02-19T05:18:01.395Z,-1.75
2019-02-19T05:20:29.396Z,-1.79
2019-02-19T05:22:57.375Z,-1.81
2019-02-19T05:25:25.589Z,-1.76
2019-02-19T05:27:53.512Z,-1.91
2019-02-19T05:30:21.433Z,-2.02
2019-02-19T05:32:49.316Z,-1.89
2019-02-19T05:35:17.170Z,-1.92
2019-02-19T05:37:44.943Z,-1.89
2019-02-19T05:40:12.912Z,-1.89
2019-02-19T05:42:40.798Z,-1.92
2019-02-19T05:45:08.835Z,-1.94
2019-02-19T05:47:36.737Z,-1.89
2019-02-19T05:50:04.711Z,-1.93
2019-02-19T05:52:32.833Z,-1.92
2019-02-19T05:55:00.780Z,-1.91
2019-02-19T05:57:28.843Z,-1.93
2019-02-19T05:59:56.644Z,-1.94
2019-02-19T06:02:24.645Z,-1.96
2019-02-19T06:04:52.553Z,-2.02
2019-02-19T06:07:20.563Z,-2.11
2019-02-19T06:09:48.502Z,-2.04
2019-02-19T06:12:16.459Z,-1.96
2019-02-19T06:14:44.281Z,-1.90
2019-02-19T06:17:12.178Z,-1.80
2019-02-19T06:19:40.261Z,-1.66
2019-02-19T06:22:08.197Z,-1.53
2019-02-19T06:24:37.200Z,-1.38
2019-02-19T06:27:05.207Z,-1.39
2019-02-19T06:29:33.119Z,-1.07
2019-02-19T06:32:00.825Z,-0.81
2019-02-19T06:34:28.833Z,-0.61
2019-02-19T06:36:56.651Z,-0.38
2019-02-19T06:39:24.629Z,-0.26
2019-02-19T06:41:52.510Z,0.07
2019-02-19T06:44:21.078Z,0.43
2019-02-19T06:46:49.874Z,0.61
2019-02-19T06:49:18.069Z,0.85
2019-02-19T06:51:46.138Z,0.75
2019-02-19T06:54:14.160Z,1.08
2019-02-19T06:56:42.052Z,1.26
2019-02-19T06:59:10.162Z,1.21
2019-02-19T07:01:57.021Z,1.37
2019-02-19T07:04:28.757Z,1.71
2019-02-19T07:06:56.774Z,2.13
2019-02-19T07:09:24.913Z,2.37
2019-02-19T07:11:52.910Z,2.63
2019-02-19T07:14:20.984Z,2.99
2019-02-19T07:16:48.819Z,3.33
2019-02-19T07:19:16.680Z,3.56
2019-02-19T07:21:44.863Z,3.77
2019-02-19T07:24:12.747Z,4.17
2019-02-19T07:26:40.727Z,4.57
2019-02-19T07:29:08.802Z,4.79
2019-02-19T07:31:36.569Z,5.22
2019-02-19T07:34:04.417Z,5.45
2019-02-19T07:36:32.446Z,5.69
2019-02-19T07:39:00.459Z,5.90
2019-02-19T07:41:28.342Z,6.13
2019-02-19T07:43:56.209Z,6.30
2019-02-19T07:46:24.072Z,6.50
2019-02-19T07:48:52.067Z,6.95
2019-02-19T07:51:20.182Z,7.14
2019-02-19T07:53:48.481Z,7.25
2019-02-19T07:56:16.401Z,7.59
2019-02-19T07:58:44.415Z,7.16
2019-02-19T08:01:12.188Z,7.73
2019-02-19T08:03:40.146Z,8.02
2019-02-19T08:06:08.062Z,8.09
2019-02-19T08:08:36.203Z,8.20
2019-02-19T08:11:04.309Z,8.46
2019-02-19T08:13:32.151Z,8.96
2019-02-19T08:16:01.114Z,9.22
2019-02-19T08:18:29.097Z,9.61
2019-02-19T08:20:57.025Z,9.87
2019-02-19T08:23:25.046Z,10.09
2019-02-19T08:25:53.031Z,10.43
2019-02-19T08:28:20.966Z,10.17
2019-02-19T08:30:49.154Z,10.34
2019-02-19T08:33:17.213Z,10.87
2019-02-19T08:35:45.085Z,11.14
2019-02-19T08:38:12.961Z,11.25
2019-02-19T08:40:40.913Z,11.31
2019-02-19T08:43:08.898Z,11.05
2019-02-19T08:45:36.825Z,10.90
2019-02-19T08:48:04.819Z,11.23
2019-02-19T08:50:32.737Z,11.45
2019-02-19T08:53:00.783Z,11.57
2019-02-19T08:55:28.637Z,11.72
2019-02-19T08:57:56.478Z,12.24
2019-02-19T09:00:24.573Z,12.48
2019-02-19T09:02:52.541Z,12.52
2019-02-19T09:05:20.521Z,12.12
2019-02-19T09:07:48.318Z,12.29
2019-02-19T09:10:16.257Z,11.78
2019-02-19T09:12:44.333Z,11.88
2019-02-19T09:15:12.401Z,12.13
2019-02-19T09:17:40.310Z,12.31
2019-02-19T09:20:08.440Z,12.22
2019-02-19T09:22:36.323Z,12.67
2019-02-19T09:25:04.690Z,12.77
2019-02-19T09:27:32.559Z,12.86
2019-02-19T09:30:00.511Z,12.83
2019-02-19T09:32:28.479Z,13.42
2019-02-19T09:34:56.354Z,13.74
2019-02-19T09:37:25.279Z,13.93
2019-02-19T09:39:54.764Z,13.62
2019-02-19T09:42:22.608Z,13.82
2019-02-19T09:44:50.580Z,14.04
2019-02-19T09:47:18.582Z,14.61
2019-02-19T09:49:46.358Z,14.75
2019-02-19T09:52:14.201Z,14.36
2019-02-19T09:54:42.364Z,14.55
2019-02-19T09:57:10.246Z,14.84
2019-02-19T09:59:38.292Z,14.72
2019-02-19T10:02:06.316Z,14.63
2019-02-19T10:04:34.364Z,14.91
2019-02-19T10:07:02.141Z,14.92
2019-02-19T10:09:30.595Z,15.30
2019-02-19T10:11:58.486Z,15.59
2019-02-19T10:14:26.533Z,15.67
2019-02-19T10:16:54.444Z,15.73
2019-02-19T10:19:22.592Z,15.27
2019-02-19T10:21:51.763Z,15.45
2019-02-19T10:24:19.787Z,16.08
2019-02-19T10:26:49.590Z,16.19
2019-02-19T10:29:17.669Z,16.02
2019-02-19T10:31:45.697Z,16.55
2019-02-19T10:34:13.815Z,16.22
2019-02-19T10:36:41.843Z,16.51
2019-02-19T10:39:11.359Z,16.68
2019-02-19T10:41:39.619Z,16.94
2019-02-19T10:44:07.488Z,17.35
2019-02-19T10:46:35.620Z,16.83
2019-02-19T10:49:03.572Z,16.97
2019-02-19T10:51:31.831Z,17.42
2019-02-19T10:54:00.091Z,17.55
2019-02-19T10:56:28.039Z,17.56
2019-02-19T10:58:55.995Z,17.59
2019-02-19T11:01:23.808Z,17.62
2019-02-19T11:03:51.847Z,18.08
2019-02-19T11:06:19.795Z,18.41
2019-02-19T11:08:47.767Z,18.29
2019-02-19T11:11:15.723Z,18.07
2019-02-19T11:13:43.891Z,18.22
2019-02-19T11:16:12.051Z,18.48
2019-02-19T11:18:40.334Z,18.45
2019-02-19T11:21:08.375Z,18.66
2019-02-19T11:23:36.192Z,18.77
2019-02-19T11:26:04.401Z,18.58
2019-02-19T11:28:32.563Z,18.63
2019-02-19T11:31:00.663Z,18.50
2019-02-19T11:33:28.857Z,18.68
2019-02-19T11:35:56.862Z,19.11
2019-02-19T11:38:24.942Z,18.94
2019-02-19T11:40:52.803Z,19.05
2019-02-19T11:43:20.849Z,19.22
2019-02-19T11:45:48.971Z,19.21
2019-02-19T11:48:16.991Z,19.43
2019-02-19T11:50:44.841Z,19.69
2019-02-19T11:53:12.728Z,19.13
2019-02-19T11:55:40.662Z,19.41
2019-02-19T11:58:08.546Z,19.38
2019-02-19T12:00:38.869Z,19.36
2019-02-19T12:03:06.770Z,18.98
2019-02-19T12:05:34.696Z,19.37
2019-02-19T12:08:02.803Z,19.72
2019-02-19T12:10:30.864Z,19.56
2019-02-19T12:12:58.880Z,19.81
2019-02-19T12:15:34.932Z,19.74
2019-02-19T12:17:56.723Z,20.06
2019-02-19T12:20:24.679Z,20.01
2019-02-19T12:22:52.883Z,19.76
2019-02-19T12:25:20.892Z,19.69
2019-02-19T12:27:48.808Z,19.85
2019-02-19T12:30:17.763Z,19.57
2019-02-19T12:32:45.562Z,19.62
2019-02-19T12:35:13.604Z,19.43
2019-02-19T12:37:41.541Z,19.54
2019-02-19T12:40:09.798Z,19.81
2019-02-19T12:42:38.118Z,19.83
2019-02-19T12:45:07.173Z,20.05
2019-02-19T12:47:35.437Z,19.93
2019-02-19T12:50:03.722Z,19.84
2019-02-19T12:52:31.700Z,19.67
2019-02-19T12:54:59.912Z,19.82
2019-02-19T12:57:27.908Z,19.99
2019-02-19T12:59:56.769Z,19.64
2019-02-19T13:02:24.825Z,19.54
2019-02-19T13:04:52.974Z,19.35
2019-02-19T13:07:20.763Z,19.33
2019-02-19T13:09:48.818Z,19.15
2019-02-19T13:12:16.906Z,19.09
2019-02-19T13:14:44.794Z,19.22
2019-02-19T13:17:15.776Z,19.42
2019-02-19T13:19:43.869Z,19.65
2019-02-19T13:22:11.849Z,19.74
2019-02-19T13:24:39.654Z,19.55
2019-02-19T13:27:07.590Z,19.56
2019-02-19T13:29:36.083Z,19.82
2019-02-19T13:32:04.206Z,20.17
2019-02-19T13:34:32.229Z,20.49
2019-02-19T13:37:00.192Z,20.08
2019-02-19T13:39:28.286Z,20.45
2019-02-19T13:41:56.079Z,20.68
2019-02-19T13:44:24.089Z,20.93
2019-02-19T13:46:52.070Z,21.14
2019-02-19T13:49:20.034Z,20.95
2019-02-19T13:51:47.904Z,21.00
2019-02-19T13:54:29.828Z,21.13
2019-02-19T13:56:57.880Z,21.53
2019-02-19T13:59:25.903Z,21.60
2019-02-19T14:01:53.839Z,21.53
2019-02-19T14:04:21.877Z,21.31
2019-02-19T14:06:49.888Z,21.66
2019-02-19T14:09:17.894Z,21.91
2019-02-19T14:11:45.951Z,22.01
2019-02-19T14:14:21.551Z,22.48
2019-02-19T14:16:55.866Z,22.67
2019-02-19T14:19:44.904Z,22.54
2019-02-19T14:22:31.039Z,22.54
2019-02-19T14:25:27.530Z,22.68
2019-02-19T14:28:16.031Z,22.46
2019-02-19T14:31:18.811Z,22.44
2019-02-19T14:34:05.681Z,22.14
2019-02-19T14:36:55.538Z,21.96
2019-02-19T14:39:46.006Z,21.48
2019-02-19T14:42:36.203Z,21.13
2019-02-19T14:45:22.551Z,20.71
2019-02-19T14:48:06.558Z,20.12
2019-02-19T14:50:54.199Z,19.61
2019-02-19T14:53:57.251Z,19.20
2019-02-19T14:56:42.292Z,19.26
2019-02-19T14:59:27.448Z,18.72
2019-02-19T15:02:14.992Z,18.69
2019-02-19T15:04:59.899Z,18.68
2019-02-19T15:07:56.369Z,18.41
2019-02-19T15:10:49.740Z,18.08
2019-02-19T15:13:37.222Z,18.09
2019-02-19T15:16:12.698Z,17.85
2019-02-19T15:19:06.131Z,17.85
2019-02-19T15:22:09.192Z,17.45
2019-02-19T15:24:56.539Z,17.42
2019-02-19T15:27:42.776Z,17.09
2019-02-19T15:30:30.152Z,17.02
2019-02-19T15:33:04.843Z,16.85
2019-02-19T15:36:02.098Z,16.73
2019-02-19T15:38:52.270Z,16.65
2019-02-19T15:41:32.740Z,16.49
2019-02-19T15:44:26.800Z,16.44
2019-02-19T15:47:16.337Z,16.36
2019-02-19T15:50:03.795Z,16.40
2019-02-19T15:52:54.328Z,16.37
2019-02-19T15:55:40.590Z,16.29
2019-02-19T15:58:27.122Z,15.96
2019-02-19T16:01:13.221Z,15.85
2019-02-19T16:03:59.157Z,15.62
2019-02-19T16:06:53.700Z,15.50
2019-02-19T16:09:44.064Z,15.40
2019-02-19T16:12:43.536Z,15.15
2019-02-19T16:15:42.936Z,14.83
2019-02-19T16:18:33.819Z,14.47
2019-02-19T16:21:21.634Z,14.21
2019-02-19T16:24:07.778Z,13.89
2019-02-19T16:27:03.888Z,13.75
2019-02-19T16:30:00.394Z,13.50
2019-02-19T16:32:50.543Z,13.22
2019-02-19T16:35:47.033Z,12.94
2019-02-19T16:38:40.570Z,12.56
2019-02-19T16:41:40.117Z,12.26
2019-02-19T16:44:39.462Z,12.00
2019-02-19T16:47:25.392Z,11.68
2019-02-19T16:50:12.825Z,11.45
2019-02-19T16:52:51.026Z,11.20
2019-02-19T16:55:33.380Z,11.11
2019-02-19T16:58:14.989Z,11.03
2019-02-19T17:01:02.370Z,11.11
2019-02-19T17:03:52.919Z,10.92
2019-02-19T17:06:28.736Z,10.64
2019-02-19T17:09:19.117Z,10.25
2019-02-19T17:12:16.921Z,10.08
2019-02-19T17:14:52.136Z,9.79
2019-02-19T17:17:48.850Z,9.45
2019-02-19T17:20:29.170Z,9.30
2019-02-19T17:23:16.844Z,9.13
2019-02-19T17:26:01.227Z,8.94
2019-02-19T17:28:34.690Z,8.78
2019-02-19T17:31:18.755Z,8.70
2019-02-19T17:34:06.711Z,8.54
2019-02-19T17:36:54.236Z,8.35
2019-02-19T17:39:46.597Z,8.21
2019-02-19T17:42:26.528Z,8.07
2019-02-19T17:45:22.988Z,7.96
2019-02-19T17:48:13.651Z,7.87
2019-02-19T17:51:10.122Z,7.76
2019-02-19T17:54:06.551Z,7.62
2019-02-19T17:57:06.192Z,7.52
2019-02-19T18:00:02.771Z,7.41
2019-02-19T18:02:42.065Z,7.35
2019-02-19T18:05:27.789Z,7.23
2019-02-19T18:08:23.788Z,7.14
2019-02-19T18:11:14.105Z,7.05
2019-02-19T18:14:00.346Z,6.89
2019-02-19T18:16:46.642Z,6.77
2019-02-19T18:19:14.881Z,6.68
2019-02-19T18:21:42.906Z,6.51
2019-02-19T18:24:10.958Z,6.43
2019-02-19T18:26:38.884Z,6.37
2019-02-19T18:29:06.831Z,6.33
2019-02-19T18:31:34.794Z,6.33
2019-02-19T18:34:02.849Z,6.23
2019-02-19T18:36:30.651Z,6.13
2019-02-19T18:38:58.599Z,6.07
2019-02-19T18:41:26.607Z,5.90
2019-02-19T18:43:54.722Z,5.88
2019-02-19T18:46:22.643Z,5.89
2019-02-19T18:48:50.704Z,5.84
2019-02-19T18:51:19.773Z,5.78
2019-02-19T18:53:47.830Z,5.69
2019-02-19T18:56:15.613Z,5.62
2019-02-19T18:58:43.747Z,5.61
2019-02-19T19:01:11.822Z,5.55
2019-02-19T19:03:39.615Z,5.54
2019-02-19T19:06:09.219Z,5.48
2019-02-19T19:08:37.002Z,5.43
2019-02-19T19:11:04.857Z,5.35
2019-02-19T19:13:33.104Z,5.15
2019-02-19T19:16:01.077Z,5.15
2019-02-19T19:18:29.179Z,5.02
2019-02-19T19:20:57.022Z,5.03
2019-02-19T19:23:24.981Z,4.98
2019-02-19T19:25:52.908Z,4.90
2019-02-19T19:28:22.760Z,4.91
2019-02-19T19:30:50.924Z,4.82
2019-02-19T19:33:18.940Z,4.81
2019-02-19T19:35:46.788Z,4.78
2019-02-19T19:38:14.878Z,4.72
2019-02-19T19:40:42.767Z,4.63
2019-02-19T19:43:10.789Z,4.50
2019-02-19T19:45:38.592Z,4.42
2019-02-19T19:48:06.654Z,4.38
2019-02-19T19:50:34.673Z,4.36
2019-02-19T19:53:02.691Z,4.30
2019-02-19T19:55:30.681Z,4.26
2019-02-19T19:57:59.030Z,4.27
2019-02-19T20:00:26.821Z,4.25
2019-02-19T20:02:55.128Z,4.23
2019-02-19T20:05:23.283Z,4.17
2019-02-19T20:07:51.904Z,4.17
2019-02-19T20:10:19.862Z,4.13
2019-02-19T20:12:47.813Z,3.93
2019-02-19T20:15:15.725Z,3.89
2019-02-19T20:17:44.563Z,3.95
2019-02-19T20:20:12.484Z,3.98
2019-02-19T20:22:40.408Z,3.95
2019-02-19T20:25:08.843Z,3.95
2019-02-19T20:27:38.354Z,3.86
2019-02-19T20:30:07.391Z,3.82
2019-02-19T20:32:37.088Z,3.78
2019-02-19T20:35:05.479Z,3.78
2019-02-19T20:37:33.492Z,3.71
2019-02-19T20:40:01.733Z,3.66
2019-02-19T20:42:29.885Z,3.61
2019-02-19T20:44:57.946Z,3.58
2019-02-19T20:47:26.022Z,3.56
2019-02-19T20:49:54.085Z,3.47
2019-02-19T20:52:22.159Z,3.46
2019-02-19T20:54:50.113Z,3.44
2019-02-19T20:57:18.213Z,3.41
2019-02-19T20:59:46.250Z,3.37
2019-02-19T21:02:14.235Z,3.33
2019-02-19T21:04:42.271Z,3.21
2019-02-19T21:07:10.388Z,3.20
2019-02-19T21:09:43.972Z,3.04
2019-02-19T21:12:08.086Z,3.02
2019-02-19T21:14:35.937Z,3.01
2019-02-19T21:17:04.086Z,2.95
2019-02-19T21:19:32.056Z,2.78
2019-02-19T21:22:00.014Z,2.57
2019-02-19T21:24:28.310Z,2.63
2019-02-19T21:26:56.375Z,2.65
2019-02-19T21:29:24.290Z,2.51
2019-02-19T21:31:52.291Z,2.56
2019-02-19T21:34:20.107Z,2.57
2019-02-19T21:36:48.194Z,2.51
2019-02-19T21:39:16.241Z,2.57
2019-02-19T21:41:44.421Z,2.60
2019-02-19T21:44:12.655Z,2.60
2019-02-19T21:46:41.316Z,2.53
2019-02-19T21:49:09.377Z,2.37
2019-02-19T21:51:37.482Z,2.46
2019-02-19T21:54:05.501Z,2.41
2019-02-19T21:56:33.822Z,2.47
2019-02-19T21:59:01.855Z,2.46
2019-02-19T22:01:30.021Z,2.39
2019-02-19T22:03:58.032Z,2.39
2019-02-19T22:06:27.335Z,2.45
2019-02-19T22:08:55.305Z,2.33
2019-02-19T22:11:23.329Z,2.22
2019-02-19T22:13:51.527Z,2.27
2019-02-19T22:16:19.571Z,2.34
2019-02-19T22:18:47.462Z,2.28
2019-02-19T22:21:50.036Z,2.20
2019-02-19T22:24:34.070Z,2.14
2019-02-19T22:27:04.890Z,2.18
2019-02-19T22:29:32.866Z,2.18
2019-02-19T22:32:01.014Z,2.20
2019-02-19T22:34:28.914Z,2.12
2019-02-19T22:36:56.964Z,2.11
2019-02-19T22:39:24.859Z,1.98
2019-02-19T22:41:52.936Z,1.83
2019-02-19T22:44:20.759Z,1.87
2019-02-19T22:46:48.864Z,1.87
2019-02-19T22:49:16.725Z,1.88
2019-02-19T22:51:44.721Z,1.83
2019-02-19T22:54:35.954Z,1.76
2019-02-19T22:57:04.089Z,1.79
2019-02-19T22:59:31.827Z,1.79
2019-02-19T23:02:05.830Z,1.75
2019-02-19T23:04:33.712Z,1.67
2019-02-19T23:07:01.694Z,1.70
2019-02-19T23:09:29.458Z,1.59
2019-02-19T23:11:57.551Z,1.56
2019-02-19T23:14:25.686Z,1.57
2019-02-19T23:16:53.694Z,1.59
2019-02-19T23:19:21.755Z,1.54
2019-02-19T23:21:49.775Z,1.49
2019-02-19T23:24:17.684Z,1.46
2019-02-19T23:26:45.587Z,1.39
2019-02-19T23:29:13.748Z,1.21
2019-02-19T23:31:41.590Z,1.25
2019-02-19T23:34:09.866Z,1.26
2019-02-19T23:36:49.889Z,1.18
2019-02-19T23:39:17.802Z,1.20
2019-02-19T23:41:45.768Z,1.11
2019-02-19T23:44:13.622Z,1.12
2019-02-19T23:46:41.641Z,0.94
2019-02-19T23:49:09.545Z,1.03
2019-02-19T23:51:37.635Z,1.11
2019-02-19T23:54:05.899Z,1.10
2019-02-19T23:56:33.868Z,1.03
2019-02-19T23:59:01.745Z,0.99
